createdAt,value
2022-09-12T00:01:50.565Z,9.44
2022-09-12T00:07:01.001Z,9.40
2022-09-12T00:12:20.910Z,9.31
2022-09-12T00:17:50.821Z,9.17
2022-09-12T00:23:18.307Z,9.08
2022-09-12T00:28:34.952Z,9.02
2022-09-12T00:33:54.890Z,8.98
2022-09-12T00:39:18.251Z,8.94
2022-09-12T00:44:49.960Z,8.91
2022-09-12T00:50:06.143Z,8.90
2022-09-12T00:55:21.523Z,8.93
2022-09-12T01:00:48.882Z,8.98
2022-09-12T01:06:15.591Z,9.02
2022-09-12T01:11:29.856Z,9.02
2022-09-12T01:16:51.288Z,8.98
2022-09-12T01:22:22.799Z,8.97
2022-09-12T01:28:14.849Z,8.99
2022-09-12T01:33:43.710Z,9.03
2022-09-12T01:39:05.127Z,9.04
2022-09-12T01:44:25.236Z,9.02
2022-09-12T01:49:38.181Z,8.98
2022-09-12T01:54:50.957Z,8.95
2022-09-12T02:00:04.961Z,8.94
2022-09-12T02:05:26.609Z,8.93
2022-09-12T02:10:58.232Z,8.91
2022-09-12T02:16:22.314Z,8.87
2022-09-12T02:21:33.167Z,8.89
2022-09-12T02:26:49.498Z,8.93
2022-09-12T02:32:00.140Z,8.93
2022-09-12T02:37:19.901Z,8.95
2022-09-12T02:42:38.526Z,8.97
2022-09-12T02:48:04.133Z,8.99
2022-09-12T02:53:16.894Z,8.99
2022-09-12T02:58:37.266Z,8.98
2022-09-12T03:04:15.133Z,8.99
2022-09-12T03:09:45.511Z,9.00
2022-09-12T03:15:20.790Z,9.02
2022-09-12T03:20:46.824Z,9.06
2022-09-12T03:25:58.823Z,9.07
2022-09-12T03:31:19.985Z,9.10
2022-09-12T03:36:31.555Z,9.17
2022-09-12T03:41:48.965Z,9.20
2022-09-12T03:46:56.353Z,9.19
2022-09-12T03:52:24.075Z,9.18
2022-09-12T03:57:31.385Z,9.18
2022-09-12T04:02:44.564Z,9.20
2022-09-12T04:08:00.537Z,9.17
2022-09-12T04:13:18.658Z,9.12
2022-09-12T04:18:48.833Z,9.09
2022-09-12T04:23:56.400Z,9.09
2022-09-12T04:29:12.829Z,9.10
2022-09-12T04:34:34.828Z,9.08
2022-09-12T04:40:02.457Z,9.04
2022-09-12T04:45:30.254Z,8.99
2022-09-12T04:50:37.698Z,8.96
2022-09-12T04:56:02.890Z,8.99
2022-09-12T05:01:31.423Z,9.09
2022-09-12T05:06:48.364Z,9.24
2022-09-12T05:12:05.800Z,9.42
2022-09-12T05:17:44.266Z,9.74
2022-09-12T05:23:15.851Z,10.32
2022-09-12T05:29:17.102Z,11.16
2022-09-12T05:34:45.994Z,11.94
2022-09-12T05:40:16.901Z,12.69
2022-09-12T05:46:09.069Z,13.45
2022-09-12T05:51:20.387Z,14.05
2022-09-12T05:56:33.426Z,14.50
2022-09-12T06:01:41.353Z,15.02
2022-09-12T06:07:12.121Z,15.67
2022-09-12T06:19:23.552Z,16.35
2022-09-12T06:24:47.664Z,16.51
2022-09-12T06:30:54.294Z,16.82
2022-09-12T06:36:16.722Z,17.15
2022-09-12T06:42:46.149Z,17.32
2022-09-12T06:55:58.158Z,17.69
2022-09-12T06:58:45.654Z,17.45
2022-09-12T07:01:26.186Z,18.04
2022-09-12T07:06:50.985Z,18.41
2022-09-12T07:12:22.695Z,18.70
2022-09-12T07:17:41.718Z,18.94
2022-09-12T07:22:50.312Z,19.31
2022-09-12T07:28:02.574Z,19.79
2022-09-12T07:33:10.101Z,20.31
2022-09-12T07:38:28.293Z,21.02
2022-09-12T07:43:38.779Z,21.74
2022-09-12T07:48:46.091Z,22.41
2022-09-12T07:53:53.900Z,23.15
2022-09-12T07:59:04.149Z,23.52
2022-09-12T08:04:12.129Z,24.08
2022-09-12T08:09:27.117Z,24.82
2022-09-12T08:14:37.920Z,25.21
2022-09-12T08:19:45.584Z,24.91
2022-09-12T08:24:56.127Z,24.76
2022-09-12T08:30:03.795Z,24.72
2022-09-12T08:35:18.244Z,24.64
2022-09-12T08:40:25.731Z,24.61
2022-09-12T08:45:51.187Z,24.61
2022-09-12T08:50:59.223Z,24.55
2022-09-12T08:56:13.105Z,24.36
2022-09-12T09:01:32.081Z,24.80
2022-09-12T09:06:59.724Z,25.15
2022-09-12T09:12:14.269Z,24.95
2022-09-12T09:17:33.604Z,24.63
2022-09-12T09:22:47.596Z,24.03
2022-09-12T09:28:04.285Z,23.28
2022-09-12T09:33:24.966Z,22.55
2022-09-12T09:38:51.659Z,21.91
2022-09-12T09:44:04.709Z,21.39
2022-09-12T09:49:22.700Z,21.08
2022-09-12T09:54:42.307Z,20.80
2022-09-12T09:59:52.332Z,20.57
2022-09-12T10:05:20.366Z,20.32
2022-09-12T10:10:27.613Z,20.16
2022-09-12T10:16:00.554Z,20.05
2022-09-12T10:21:41.353Z,19.82
2022-09-12T10:27:15.629Z,19.65
2022-09-12T10:32:39.105Z,19.67
2022-09-12T10:37:56.307Z,19.74
2022-09-12T10:43:31.319Z,19.62
2022-09-12T10:48:50.271Z,19.69
2022-09-12T10:54:13.721Z,19.72
2022-09-12T11:00:00.141Z,19.64
2022-09-12T11:05:19.473Z,19.61
2022-09-12T11:10:49.774Z,19.50
2022-09-12T11:16:15.560Z,19.36
2022-09-12T11:21:42.207Z,19.22
2022-09-12T11:27:29.540Z,19.07
2022-09-12T11:33:08.963Z,19.08
2022-09-12T11:38:31.410Z,19.23
2022-09-12T11:43:43.448Z,19.45
2022-09-12T11:48:57.428Z,19.59
2022-09-12T11:54:24.422Z,19.73
2022-09-12T11:59:50.139Z,19.86
2022-09-12T12:05:16.820Z,19.89
2022-09-12T12:10:39.170Z,20.06
2022-09-12T12:15:54.909Z,20.01
2022-09-12T12:21:41.082Z,19.91
2022-09-12T12:27:05.376Z,20.07
2022-09-12T12:32:28.889Z,20.13
2022-09-12T12:37:58.440Z,19.89
2022-09-12T12:43:20.703Z,19.60
2022-09-12T12:48:57.046Z,19.45
2022-09-12T12:54:43.159Z,19.42
2022-09-12T13:00:02.866Z,19.47
2022-09-12T13:05:22.646Z,19.47
2022-09-12T13:10:35.938Z,19.54
2022-09-12T13:15:54.112Z,19.60
2022-09-12T13:21:19.411Z,19.64
2022-09-12T13:26:28.103Z,19.65
2022-09-12T13:31:44.142Z,19.64
2022-09-12T13:37:22.102Z,19.64
2022-09-12T13:42:49.217Z,19.70
2022-09-12T13:48:09.509Z,19.68
2022-09-12T13:53:22.386Z,19.69
2022-09-12T13:58:34.799Z,19.65
2022-09-12T14:04:02.412Z,19.63
2022-09-12T14:09:19.821Z,19.54
2022-09-12T14:14:32.975Z,19.40
2022-09-12T14:19:40.429Z,19.31
2022-09-12T14:24:51.894Z,19.24
2022-09-12T14:30:07.642Z,19.20
2022-09-12T14:35:26.821Z,19.15
2022-09-12T14:41:01.258Z,19.13
2022-09-12T14:46:18.776Z,19.12
2022-09-12T14:51:41.754Z,19.15
2022-09-12T14:56:58.242Z,19.21
2022-09-12T15:02:26.346Z,19.24
2022-09-12T15:07:46.712Z,19.21
2022-09-12T15:13:20.189Z,19.17
2022-09-12T15:18:47.691Z,19.14
2022-09-12T15:23:55.257Z,19.14
2022-09-12T15:29:11.977Z,19.09
2022-09-12T15:34:22.105Z,19.02
2022-09-12T15:39:41.451Z,18.92
2022-09-12T15:44:48.931Z,18.84
2022-09-12T15:49:56.281Z,18.77
2022-09-12T15:55:03.787Z,18.70
2022-09-12T16:00:19.154Z,18.62
2022-09-12T16:05:28.350Z,18.56
2022-09-12T16:10:39.426Z,18.52
2022-09-12T16:15:48.227Z,18.44
2022-09-12T16:20:58.557Z,18.37
2022-09-12T16:26:25.239Z,18.28
2022-09-12T16:31:43.423Z,18.18
2022-09-12T16:36:54.102Z,18.07
2022-09-12T16:42:03.765Z,17.94
2022-09-12T16:47:09.537Z,17.82
2022-09-12T16:52:27.001Z,17.68
2022-09-12T16:57:49.663Z,17.50
2022-09-12T17:02:56.990Z,17.30
2022-09-12T17:24:30.175Z,16.61
2022-09-12T17:34:33.537Z,15.92
2022-09-12T17:40:48.977Z,15.63
2022-09-12T17:46:46.940Z,15.32
2022-09-12T17:52:00.381Z,15.07
2022-09-12T17:57:08.942Z,14.86
2022-09-12T18:02:17.458Z,14.69
2022-09-12T18:08:08.875Z,14.50
2022-09-12T18:13:22.356Z,14.31
2022-09-12T18:18:53.424Z,14.12
2022-09-12T18:24:07.206Z,13.91
2022-09-12T18:29:28.927Z,13.69
2022-09-12T18:34:52.933Z,13.48
2022-09-12T18:40:13.144Z,13.33
2022-09-12T18:45:31.228Z,13.27
2022-09-12T18:50:50.994Z,13.21
2022-09-12T18:56:14.409Z,13.08
2022-09-12T19:01:25.092Z,12.87
2022-09-12T19:06:42.315Z,12.69
2022-09-12T19:12:00.244Z,12.58
2022-09-12T19:17:13.635Z,12.50
2022-09-12T19:22:24.079Z,12.46
2022-09-12T19:27:32.186Z,12.47
2022-09-12T19:32:40.572Z,12.50
2022-09-12T19:37:48.112Z,12.48
2022-09-12T19:42:55.760Z,12.43
2022-09-12T19:48:03.567Z,12.30
2022-09-12T19:53:11.801Z,12.13
2022-09-12T19:58:17.484Z,11.99
2022-09-12T20:03:27.794Z,11.93
2022-09-12T20:08:36.026Z,11.92
2022-09-12T20:13:43.844Z,11.88
2022-09-12T20:18:56.684Z,11.85
2022-09-12T20:24:12.421Z,11.77
2022-09-12T20:29:25.401Z,11.63
2022-09-12T20:34:46.104Z,11.47
2022-09-12T20:39:55.698Z,11.34
2022-09-12T20:45:08.220Z,11.18
2022-09-12T20:50:15.918Z,11.09
2022-09-12T20:55:29.006Z,11.00
2022-09-12T21:00:36.622Z,10.88
2022-09-12T21:05:51.934Z,10.74
2022-09-12T21:11:02.910Z,10.68
2022-09-12T21:16:19.855Z,10.64
2022-09-12T21:21:49.527Z,10.61
2022-09-12T21:27:04.003Z,10.56
2022-09-12T21:32:15.704Z,10.47
2022-09-12T21:37:26.215Z,10.36
2022-09-12T21:42:38.985Z,10.25
2022-09-12T21:47:49.995Z,10.15
2022-09-12T21:52:59.321Z,10.06
2022-09-12T21:58:09.806Z,9.95
2022-09-12T22:03:36.697Z,9.80
2022-09-12T22:09:05.263Z,9.67
2022-09-12T22:14:16.095Z,9.55
2022-09-12T22:20:09.886Z,9.44
2022-09-12T22:25:38.711Z,9.33
2022-09-12T22:30:52.139Z,9.27
2022-09-12T22:36:18.582Z,9.24
2022-09-12T22:41:49.925Z,9.23
2022-09-12T22:47:25.022Z,9.24
2022-09-12T22:52:44.488Z,9.21
2022-09-12T22:58:06.745Z,9.16
2022-09-12T23:03:14.279Z,9.08
2022-09-12T23:08:30.055Z,8.98
2022-09-12T23:13:43.739Z,8.83
2022-09-12T23:19:03.202Z,8.71
2022-09-12T23:24:19.584Z,8.65
2022-09-12T23:29:37.304Z,8.60
2022-09-12T23:34:46.674Z,8.51
2022-09-12T23:39:59.026Z,8.42
2022-09-12T23:45:12.784Z,8.33
2022-09-12T23:50:25.910Z,8.24
2022-09-12T23:55:36.158Z,8.23
